sensor_id;sensor_type;location;lat;lon;timestamp;pressure;altitude;pressure_sealevel;temperature;humidity
39275;BME280;24980;48.874;2.332;2023-02-13T00:00:24;102962.13;;;25.77;39.45
39275;BME280;24980;48.874;2.332;2023-02-13T00:02:54;102961.09;;;25.78;39.56
39275;BME280;24980;48.874;2.332;2023-02-13T00:05:23;102960.42;;;25.79;39.67
39275;BME280;24980;48.874;2.332;2023-02-13T00:07:53;102957.39;;;25.81;39.77
39275;BME280;24980;48.874;2.332;2023-02-13T00:10:28;102959.84;;;25.82;39.87
39275;BME280;24980;48.874;2.332;2023-02-13T00:12:57;102962.83;;;25.83;39.93
39275;BME280;24980;48.874;2.332;2023-02-13T00:15:24;102960.30;;;25.84;40.01
39275;BME280;24980;48.874;2.332;2023-02-13T00:17:54;102963.94;;;25.86;40.09
39275;BME280;24980;48.874;2.332;2023-02-13T00:20:25;102960.80;;;25.86;40.15
39275;BME280;24980;48.874;2.332;2023-02-13T00:22:57;102954.42;;;25.86;40.21
39275;BME280;24980;48.874;2.332;2023-02-13T00:25:26;102954.42;;;25.86;40.26
39275;BME280;24980;48.874;2.332;2023-02-13T00:27:56;102955.62;;;25.85;40.32
39275;BME280;24980;48.874;2.332;2023-02-13T00:30:27;102955.79;;;25.84;40.40
39275;BME280;24980;48.874;2.332;2023-02-13T00:32:57;102952.97;;;25.85;40.47
39275;BME280;24980;48.874;2.332;2023-02-13T00:35:27;102952.05;;;25.87;40.50
39275;BME280;24980;48.874;2.332;2023-02-13T00:37:57;102955.02;;;25.88;40.54
39275;BME280;24980;48.874;2.332;2023-02-13T00:40:28;102952.63;;;25.88;40.58
39275;BME280;24980;48.874;2.332;2023-02-13T00:42:58;102951.55;;;25.87;40.62
39275;BME280;24980;48.874;2.332;2023-02-13T00:45:28;102954.19;;;25.87;40.64
39275;BME280;24980;48.874;2.332;2023-02-13T00:48:06;102957.24;;;25.87;40.65
39275;BME280;24980;48.874;2.332;2023-02-13T00:50:29;102955.88;;;25.87;40.70
39275;BME280;24980;48.874;2.332;2023-02-13T00:52:59;102953.26;;;25.88;40.73
39275;BME280;24980;48.874;2.332;2023-02-13T00:55:32;102954.42;;;25.88;40.78
39275;BME280;24980;48.874;2.332;2023-02-13T00:58:00;102954.43;;;25.89;40.83
39275;BME280;24980;48.874;2.332;2023-02-13T01:00:30;102951.29;;;25.89;40.89
39275;BME280;24980;48.874;2.332;2023-02-13T01:03:00;102954.77;;;25.89;40.93
39275;BME280;24980;48.874;2.332;2023-02-13T01:05:31;102950.19;;;25.89;40.97
39275;BME280;24980;48.874;2.332;2023-02-13T01:08:01;102946.36;;;25.89;41.01
39275;BME280;24980;48.874;2.332;2023-02-13T01:10:32;102943.91;;;25.89;41.06
39275;BME280;24980;48.874;2.332;2023-02-13T01:13:03;102942.97;;;25.89;41.13
39275;BME280;24980;48.874;2.332;2023-02-13T01:15:36;102938.74;;;25.91;41.21
39275;BME280;24980;48.874;2.332;2023-02-13T01:18:04;102937.95;;;25.92;41.26
39275;BME280;24980;48.874;2.332;2023-02-13T01:20:34;102935.75;;;25.92;41.33
39275;BME280;24980;48.874;2.332;2023-02-13T01:23:08;102938.05;;;25.92;41.40
39275;BME280;24980;48.874;2.332;2023-02-13T01:28:09;102939.06;;;25.92;41.50
39275;BME280;24980;48.874;2.332;2023-02-13T01:30:36;102943.50;;;25.93;41.54
39275;BME280;24980;48.874;2.332;2023-02-13T01:33:06;102941.38;;;25.93;41.56
39275;BME280;24980;48.874;2.332;2023-02-13T01:35:39;102942.05;;;25.93;41.58
39275;BME280;24980;48.874;2.332;2023-02-13T01:38:07;102942.40;;;25.94;41.62
39275;BME280;24980;48.874;2.332;2023-02-13T01:40:45;102937.56;;;25.94;41.63
39275;BME280;24980;48.874;2.332;2023-02-13T01:43:10;102937.89;;;25.93;41.65
39275;BME280;24980;48.874;2.332;2023-02-13T01:45:40;102937.81;;;25.94;41.67
39275;BME280;24980;48.874;2.332;2023-02-13T01:48:21;102936.62;;;25.94;41.70
39275;BME280;24980;48.874;2.332;2023-02-13T01:50:43;102936.17;;;25.94;41.72
39275;BME280;24980;48.874;2.332;2023-02-13T01:53:25;102934.39;;;25.95;41.74
39275;BME280;24980;48.874;2.332;2023-02-13T01:55:49;102938.31;;;25.95;41.75
39275;BME280;24980;48.874;2.332;2023-02-13T01:58:21;102935.08;;;25.95;41.77
39275;BME280;24980;48.874;2.332;2023-02-13T02:00:43;102937.12;;;25.95;41.79
39275;BME280;24980;48.874;2.332;2023-02-13T02:03:18;102929.48;;;25.94;41.82
39275;BME280;24980;48.874;2.332;2023-02-13T02:05:43;102934.81;;;25.94;41.84
39275;BME280;24980;48.874;2.332;2023-02-13T02:08:14;102941.03;;;25.95;41.85
39275;BME280;24980;48.874;2.332;2023-02-13T02:10:45;102939.69;;;25.97;41.87
39275;BME280;24980;48.874;2.332;2023-02-13T02:13:18;102936.72;;;25.97;41.90
39275;BME280;24980;48.874;2.332;2023-02-13T02:15:47;102940.53;;;25.99;41.93
39275;BME280;24980;48.874;2.332;2023-02-13T02:18:23;102938.14;;;25.98;41.96
39275;BME280;24980;48.874;2.332;2023-02-13T02:28:32;102934.84;;;25.99;42.02
39275;BME280;24980;48.874;2.332;2023-02-13T02:33:46;102931.36;;;25.99;42.02
39275;BME280;24980;48.874;2.332;2023-02-13T02:36:09;102924.55;;;25.98;42.02
39275;BME280;24980;48.874;2.332;2023-02-13T02:38:53;102925.59;;;25.97;42.00
39275;BME280;24980;48.874;2.332;2023-02-13T02:41:00;102921.41;;;25.95;41.99
39275;BME280;24980;48.874;2.332;2023-02-13T02:45:57;102924.81;;;25.94;41.99
39275;BME280;24980;48.874;2.332;2023-02-13T02:48:34;102921.56;;;25.93;42.00
39275;BME280;24980;48.874;2.332;2023-02-13T02:51:06;102925.47;;;25.92;41.99
39275;BME280;24980;48.874;2.332;2023-02-13T02:53:50;102920.62;;;25.91;41.99
39275;BME280;24980;48.874;2.332;2023-02-13T02:58:51;102922.67;;;25.90;41.98
39275;BME280;24980;48.874;2.332;2023-02-13T03:00:56;102920.36;;;25.88;41.99
39275;BME280;24980;48.874;2.332;2023-02-13T03:03:26;102921.70;;;25.88;42.00
39275;BME280;24980;48.874;2.332;2023-02-13T03:06:01;102921.81;;;25.87;42.01
39275;BME280;24980;48.874;2.332;2023-02-13T03:08:30;102921.98;;;25.87;42.01
39275;BME280;24980;48.874;2.332;2023-02-13T03:10:57;102925.39;;;25.87;42.01
39275;BME280;24980;48.874;2.332;2023-02-13T03:15:59;102924.44;;;25.86;42.03
39275;BME280;24980;48.874;2.332;2023-02-13T03:18:32;102924.53;;;25.85;42.05
39275;BME280;24980;48.874;2.332;2023-02-13T03:23:58;102934.71;;;25.83;42.09
39275;BME280;24980;48.874;2.332;2023-02-13T03:26:18;102933.01;;;25.83;42.12
39275;BME280;24980;48.874;2.332;2023-02-13T03:28:44;102926.64;;;25.83;42.15
39275;BME280;24980;48.874;2.332;2023-02-13T03:31:26;102929.34;;;25.85;42.19
39275;BME280;24980;48.874;2.332;2023-02-13T03:33:56;102926.23;;;25.85;42.23
39275;BME280;24980;48.874;2.332;2023-02-13T03:36:23;102926.30;;;25.85;42.25
39275;BME280;24980;48.874;2.332;2023-02-13T03:41:24;102923.58;;;25.85;42.28
39275;BME280;24980;48.874;2.332;2023-02-13T03:43:40;102922.30;;;25.86;42.31
39275;BME280;24980;48.874;2.332;2023-02-13T03:46:06;102923.52;;;25.85;42.32
39275;BME280;24980;48.874;2.332;2023-02-13T03:48:36;102921.38;;;25.86;42.35
39275;BME280;24980;48.874;2.332;2023-02-13T03:51:07;102922.39;;;25.86;42.35
39275;BME280;24980;48.874;2.332;2023-02-13T03:53:37;102924.27;;;25.86;42.33
39275;BME280;24980;48.874;2.332;2023-02-13T03:56:07;102922.41;;;25.87;42.29
39275;BME280;24980;48.874;2.332;2023-02-13T03:58:40;102921.39;;;25.87;42.26
39275;BME280;24980;48.874;2.332;2023-02-13T04:01:07;102924.09;;;25.86;42.23
39275;BME280;24980;48.874;2.332;2023-02-13T04:06:18;102921.91;;;25.87;42.20
39275;BME280;24980;48.874;2.332;2023-02-13T04:08:37;102925.28;;;25.88;42.20
39275;BME280;24980;48.874;2.332;2023-02-13T04:11:23;102926.39;;;25.88;42.20
39275;BME280;24980;48.874;2.332;2023-02-13T04:14:03;102928.27;;;25.89;42.19
39275;BME280;24980;48.874;2.332;2023-02-13T04:16:12;102931.22;;;25.88;42.17
39275;BME280;24980;48.874;2.332;2023-02-13T04:18:40;102930.64;;;25.87;42.16
39275;BME280;24980;48.874;2.332;2023-02-13T04:21:10;102932.09;;;25.86;42.15
39275;BME280;24980;48.874;2.332;2023-02-13T04:23:48;102931.82;;;25.86;42.14
39275;BME280;24980;48.874;2.332;2023-02-13T04:26:19;102933.09;;;25.85;42.13
39275;BME280;24980;48.874;2.332;2023-02-13T04:28:41;102933.52;;;25.85;42.12
39275;BME280;24980;48.874;2.332;2023-02-13T04:31:12;102933.00;;;25.85;42.10
39275;BME280;24980;48.874;2.332;2023-02-13T04:33:42;102934.90;;;25.85;42.09
39275;BME280;24980;48.874;2.332;2023-02-13T04:36:12;102938.03;;;25.84;42.08
39275;BME280;24980;48.874;2.332;2023-02-13T04:38:42;102939.72;;;25.83;42.08
39275;BME280;24980;48.874;2.332;2023-02-13T04:41:12;102933.08;;;25.82;42.07
39275;BME280;24980;48.874;2.332;2023-02-13T04:43:42;102932.06;;;25.82;42.07
39275;BME280;24980;48.874;2.332;2023-02-13T04:46:14;102930.97;;;25.83;42.07
39275;BME280;24980;48.874;2.332;2023-02-13T04:48:43;102929.72;;;25.84;42.06
39275;BME280;24980;48.874;2.332;2023-02-13T04:51:13;102927.84;;;25.84;42.06
39275;BME280;24980;48.874;2.332;2023-02-13T04:53:43;102922.31;;;25.84;42.07
39275;BME280;24980;48.874;2.332;2023-02-13T04:56:15;102927.59;;;25.84;42.07
39275;BME280;24980;48.874;2.332;2023-02-13T04:58:43;102924.25;;;25.85;42.06
39275;BME280;24980;48.874;2.332;2023-02-13T05:01:15;102929.10;;;25.86;42.05
39275;BME280;24980;48.874;2.332;2023-02-13T05:03:44;102926.66;;;25.87;42.05
39275;BME280;24980;48.874;2.332;2023-02-13T05:06:14;102928.17;;;25.88;42.04
39275;BME280;24980;48.874;2.332;2023-02-13T05:08:45;102923.58;;;25.88;42.03
39275;BME280;24980;48.874;2.332;2023-02-13T05:11:15;102927.41;;;25.89;42.02
39275;BME280;24980;48.874;2.332;2023-02-13T05:13:45;102927.49;;;25.88;42.03
39275;BME280;24980;48.874;2.332;2023-02-13T05:16:15;102928.43;;;25.89;42.01
39275;BME280;24980;48.874;2.332;2023-02-13T05:18:46;102924.78;;;25.89;42.00
39275;BME280;24980;48.874;2.332;2023-02-13T05:21:16;102924.87;;;25.89;42.03
39275;BME280;24980;48.874;2.332;2023-02-13T05:23:46;102920.30;;;25.91;42.02
39275;BME280;24980;48.874;2.332;2023-02-13T05:26:16;102917.92;;;25.91;42.01
39275;BME280;24980;48.874;2.332;2023-02-13T05:28:46;102913.91;;;25.92;42.01
39275;BME280;24980;48.874;2.332;2023-02-13T05:31:16;102910.69;;;25.92;42.01
39275;BME280;24980;48.874;2.332;2023-02-13T05:33:46;102917.98;;;25.91;42.03
39275;BME280;24980;48.874;2.332;2023-02-13T05:36:16;102921.66;;;25.90;42.06
39275;BME280;24980;48.874;2.332;2023-02-13T05:38:47;102921.39;;;25.90;42.04
39275;BME280;24980;48.874;2.332;2023-02-13T05:41:17;102916.64;;;25.90;42.04
39275;BME280;24980;48.874;2.332;2023-02-13T05:43:47;102920.12;;;25.90;42.04
39275;BME280;24980;48.874;2.332;2023-02-13T05:46:17;102918.52;;;25.90;42.04
39275;BME280;24980;48.874;2.332;2023-02-13T05:48:47;102919.27;;;25.90;42.05
39275;BME280;24980;48.874;2.332;2023-02-13T05:51:20;102920.88;;;25.89;42.05
39275;BME280;24980;48.874;2.332;2023-02-13T05:53:48;102918.50;;;25.89;42.07
39275;BME280;24980;48.874;2.332;2023-02-13T05:56:20;102919.43;;;25.89;42.08
39275;BME280;24980;48.874;2.332;2023-02-13T05:58:52;102918.91;;;25.89;42.09
39275;BME280;24980;48.874;2.332;2023-02-13T06:01:24;102921.97;;;25.88;42.13
39275;BME280;24980;48.874;2.332;2023-02-13T06:03:49;102926.47;;;25.88;42.17
39275;BME280;24980;48.874;2.332;2023-02-13T06:06:19;102919.16;;;25.88;42.19
39275;BME280;24980;48.874;2.332;2023-02-13T06:08:50;102920.02;;;25.88;42.20
39275;BME280;24980;48.874;2.332;2023-02-13T06:11:20;102922.25;;;25.87;42.21
39275;BME280;24980;48.874;2.332;2023-02-13T06:13:50;102929.88;;;25.87;42.21
39275;BME280;24980;48.874;2.332;2023-02-13T06:16:24;102929.72;;;25.87;42.23
39275;BME280;24980;48.874;2.332;2023-02-13T06:18:50;102929.29;;;25.89;42.26
39275;BME280;24980;48.874;2.332;2023-02-13T06:21:20;102931.44;;;25.91;42.24
39275;BME280;24980;48.874;2.332;2023-02-13T06:23:50;102929.28;;;25.91;42.23
39275;BME280;24980;48.874;2.332;2023-02-13T06:26:21;102930.23;;;25.90;42.24
39275;BME280;24980;48.874;2.332;2023-02-13T06:28:53;102932.35;;;25.90;42.24
39275;BME280;24980;48.874;2.332;2023-02-13T06:31:23;102929.20;;;25.89;42.24
39275;BME280;24980;48.874;2.332;2023-02-13T06:33:51;102933.38;;;25.90;42.24
39275;BME280;24980;48.874;2.332;2023-02-13T06:36:22;102932.68;;;25.91;42.21
39275;BME280;24980;48.874;2.332;2023-02-13T06:38:52;102936.20;;;25.93;42.21
39275;BME280;24980;48.874;2.332;2023-02-13T06:41:22;102935.16;;;25.95;42.17
39275;BME280;24980;48.874;2.332;2023-02-13T06:43:52;102935.92;;;25.95;42.16
39275;BME280;24980;48.874;2.332;2023-02-13T06:46:22;102936.86;;;25.95;42.15
39275;BME280;24980;48.874;2.332;2023-02-13T06:48:52;102939.59;;;25.95;42.18
39275;BME280;24980;48.874;2.332;2023-02-13T06:51:23;102942.99;;;25.96;42.22
39275;BME280;24980;48.874;2.332;2023-02-13T06:53:53;102948.27;;;25.97;42.24
39275;BME280;24980;48.874;2.332;2023-02-13T06:56:23;102949.89;;;25.97;42.24
39275;BME280;24980;48.874;2.332;2023-02-13T06:58:53;102951.75;;;25.99;42.22
39275;BME280;24980;48.874;2.332;2023-02-13T07:01:23;102952.95;;;26.00;42.21
39275;BME280;24980;48.874;2.332;2023-02-13T07:03:53;102950.98;;;25.99;42.18
39275;BME280;24980;48.874;2.332;2023-02-13T07:06:29;102959.48;;;25.99;42.15
39275;BME280;24980;48.874;2.332;2023-02-13T07:11:25;102962.27;;;25.98;42.14
39275;BME280;24980;48.874;2.332;2023-02-13T07:14:00;102960.92;;;25.99;42.12
39275;BME280;24980;48.874;2.332;2023-02-13T07:16:26;102966.20;;;26.00;42.11
39275;BME280;24980;48.874;2.332;2023-02-13T07:18:56;102965.09;;;26.01;42.09
39275;BME280;24980;48.874;2.332;2023-02-13T07:21:26;102971.72;;;26.02;42.08
39275;BME280;24980;48.874;2.332;2023-02-13T07:23:56;102974.70;;;26.01;42.09
39275;BME280;24980;48.874;2.332;2023-02-13T07:26:26;102981.66;;;26.01;42.09
39275;BME280;24980;48.874;2.332;2023-02-13T07:28:59;102976.39;;;25.96;42.11
39275;BME280;24980;48.874;2.332;2023-02-13T07:31:27;102978.64;;;25.86;41.87
39275;BME280;24980;48.874;2.332;2023-02-13T07:33:59;102981.44;;;25.69;41.53
39275;BME280;24980;48.874;2.332;2023-02-13T07:36:27;102988.26;;;25.54;41.14
39275;BME280;24980;48.874;2.332;2023-02-13T07:38:57;102984.89;;;25.40;40.78
39275;BME280;24980;48.874;2.332;2023-02-13T07:41:30;102989.94;;;25.29;40.45
39275;BME280;24980;48.874;2.332;2023-02-13T07:43:58;102993.33;;;25.28;40.17
39275;BME280;24980;48.874;2.332;2023-02-13T07:46:28;102991.93;;;25.33;39.96
39275;BME280;24980;48.874;2.332;2023-02-13T07:48:58;102985.08;;;25.38;39.78
39275;BME280;24980;48.874;2.332;2023-02-13T07:51:29;102988.17;;;25.43;39.64
39275;BME280;24980;48.874;2.332;2023-02-13T07:54:01;102987.42;;;25.46;39.53
39275;BME280;24980;48.874;2.332;2023-02-13T07:56:29;102985.28;;;25.47;39.45
39275;BME280;24980;48.874;2.332;2023-02-13T07:58:59;102983.86;;;25.48;39.39
39275;BME280;24980;48.874;2.332;2023-02-13T08:01:29;102983.45;;;25.49;39.35
39275;BME280;24980;48.874;2.332;2023-02-13T08:03:59;102985.27;;;25.51;39.31
39275;BME280;24980;48.874;2.332;2023-02-13T08:06:29;102987.22;;;25.51;39.27
39275;BME280;24980;48.874;2.332;2023-02-13T08:08:59;102987.47;;;25.53;39.24
39275;BME280;24980;48.874;2.332;2023-02-13T08:11:31;102986.91;;;25.54;39.22
39275;BME280;24980;48.874;2.332;2023-02-13T08:14:00;102985.45;;;25.57;39.20
39275;BME280;24980;48.874;2.332;2023-02-13T08:16:30;102986.42;;;25.58;39.19
39275;BME280;24980;48.874;2.332;2023-02-13T08:19:03;102986.99;;;25.59;39.18
39275;BME280;24980;48.874;2.332;2023-02-13T08:21:32;102985.12;;;25.59;39.14
39275;BME280;24980;48.874;2.332;2023-02-13T08:24:06;102984.97;;;25.58;39.09
39275;BME280;24980;48.874;2.332;2023-02-13T08:26:32;102986.77;;;25.58;39.03
39275;BME280;24980;48.874;2.332;2023-02-13T08:29:03;102986.41;;;25.58;38.98
39275;BME280;24980;48.874;2.332;2023-02-13T08:31:33;102990.41;;;25.56;38.94
39275;BME280;24980;48.874;2.332;2023-02-13T08:34:03;102991.64;;;25.53;38.90
39275;BME280;24980;48.874;2.332;2023-02-13T08:36:34;102992.41;;;25.52;38.87
39275;BME280;24980;48.874;2.332;2023-02-13T08:39:04;102995.37;;;25.51;38.83
39275;BME280;24980;48.874;2.332;2023-02-13T08:41:34;102996.70;;;25.49;38.79
39275;BME280;24980;48.874;2.332;2023-02-13T08:44:04;102996.42;;;25.48;38.76
39275;BME280;24980;48.874;2.332;2023-02-13T08:46:34;102998.53;;;25.47;38.73
39275;BME280;24980;48.874;2.332;2023-02-13T08:49:05;102991.31;;;25.47;38.68
39275;BME280;24980;48.874;2.332;2023-02-13T08:51:35;102995.41;;;25.46;38.63
39275;BME280;24980;48.874;2.332;2023-02-13T08:54:05;102996.72;;;25.43;38.62
39275;BME280;24980;48.874;2.332;2023-02-13T08:56:39;102995.69;;;25.40;38.58
39275;BME280;24980;48.874;2.332;2023-02-13T08:59:06;102997.06;;;25.39;38.56
39275;BME280;24980;48.874;2.332;2023-02-13T09:01:36;102998.66;;;25.39;38.50
39275;BME280;24980;48.874;2.332;2023-02-13T09:04:06;103001.30;;;25.38;38.47
39275;BME280;24980;48.874;2.332;2023-02-13T09:06:36;103003.49;;;25.38;38.45
39275;BME280;24980;48.874;2.332;2023-02-13T09:09:06;103003.31;;;25.37;38.43
39275;BME280;24980;48.874;2.332;2023-02-13T09:11:36;103004.94;;;25.36;38.41
39275;BME280;24980;48.874;2.332;2023-02-13T09:14:06;102995.39;;;25.34;38.38
39275;BME280;24980;48.874;2.332;2023-02-13T09:16:36;102996.84;;;25.32;38.33
39275;BME280;24980;48.874;2.332;2023-02-13T09:19:06;103000.14;;;25.32;38.28
39275;BME280;24980;48.874;2.332;2023-02-13T09:21:36;103000.45;;;25.30;38.22
39275;BME280;24980;48.874;2.332;2023-02-13T09:24:07;103003.61;;;25.31;38.15
39275;BME280;24980;48.874;2.332;2023-02-13T09:26:36;103004.37;;;25.31;38.09
39275;BME280;24980;48.874;2.332;2023-02-13T09:29:13;103003.84;;;25.30;38.04
39275;BME280;24980;48.874;2.332;2023-02-13T09:31:40;103006.33;;;25.29;38.00
39275;BME280;24980;48.874;2.332;2023-02-13T09:34:17;103002.75;;;25.28;37.96
39275;BME280;24980;48.874;2.332;2023-02-13T09:36:37;103000.73;;;25.29;37.93
39275;BME280;24980;48.874;2.332;2023-02-13T09:39:08;103004.46;;;25.29;37.91
39275;BME280;24980;48.874;2.332;2023-02-13T09:41:41;103005.48;;;25.29;37.89
39275;BME280;24980;48.874;2.332;2023-02-13T09:44:17;103007.02;;;25.30;37.86
39275;BME280;24980;48.874;2.332;2023-02-13T09:46:39;103003.86;;;25.31;37.84
39275;BME280;24980;48.874;2.332;2023-02-13T09:49:19;103011.67;;;25.31;37.83
39275;BME280;24980;48.874;2.332;2023-02-13T09:51:41;103007.27;;;25.31;37.80
39275;BME280;24980;48.874;2.332;2023-02-13T09:54:14;103013.30;;;25.31;37.77
39275;BME280;24980;48.874;2.332;2023-02-13T09:56:51;103013.80;;;25.31;37.75
39275;BME280;24980;48.874;2.332;2023-02-13T10:01:44;103009.98;;;25.31;37.73
39275;BME280;24980;48.874;2.332;2023-02-13T10:06:44;103007.45;;;25.34;37.71
39275;BME280;24980;48.874;2.332;2023-02-13T10:14:31;103007.39;;;25.37;37.70
39275;BME280;24980;48.874;2.332;2023-02-13T10:16:54;103006.28;;;25.37;37.71
39275;BME280;24980;48.874;2.332;2023-02-13T10:19:24;103002.98;;;25.38;37.71
39275;BME280;24980;48.874;2.332;2023-02-13T10:21:52;103002.47;;;25.38;37.69
39275;BME280;24980;48.874;2.332;2023-02-13T10:24:24;103005.36;;;25.38;37.68
39275;BME280;24980;48.874;2.332;2023-02-13T10:26:46;102997.66;;;25.39;37.64
39275;BME280;24980;48.874;2.332;2023-02-13T10:29:31;103001.84;;;25.42;37.61
39275;BME280;24980;48.874;2.332;2023-02-13T10:31:49;102999.62;;;25.44;37.60
39275;BME280;24980;48.874;2.332;2023-02-13T10:34:25;103002.11;;;25.46;37.59
39275;BME280;24980;48.874;2.332;2023-02-13T10:36:47;103001.06;;;25.46;37.59
39275;BME280;24980;48.874;2.332;2023-02-13T10:39:35;103002.44;;;25.47;37.57
39275;BME280;24980;48.874;2.332;2023-02-13T10:42:15;103000.23;;;25.47;37.55
39275;BME280;24980;48.874;2.332;2023-02-13T10:47:13;103002.39;;;25.49;37.53
39275;BME280;24980;48.874;2.332;2023-02-13T10:49:42;102997.25;;;25.49;37.54
39275;BME280;24980;48.874;2.332;2023-02-13T10:57:19;102989.94;;;25.51;37.63
39275;BME280;24980;48.874;2.332;2023-02-13T11:02:26;102984.59;;;25.51;37.69
39275;BME280;24980;48.874;2.332;2023-02-13T11:04:22;102984.26;;;25.52;37.70
39275;BME280;24980;48.874;2.332;2023-02-13T11:06:58;102979.41;;;25.51;37.72
39275;BME280;24980;48.874;2.332;2023-02-13T11:09:24;102979.77;;;25.52;37.73
39275;BME280;24980;48.874;2.332;2023-02-13T11:11:54;102975.59;;;25.53;37.76
39275;BME280;24980;48.874;2.332;2023-02-13T11:14:25;102974.16;;;25.54;37.75
39275;BME280;24980;48.874;2.332;2023-02-13T11:17:01;102965.52;;;25.55;37.75
39275;BME280;24980;48.874;2.332;2023-02-13T11:19:32;102961.77;;;25.55;37.75
39275;BME280;24980;48.874;2.332;2023-02-13T11:22:01;102959.82;;;25.55;37.74
39275;BME280;24980;48.874;2.332;2023-02-13T11:24:30;102956.77;;;25.55;37.71
39275;BME280;24980;48.874;2.332;2023-02-13T11:27:04;102959.83;;;25.56;37.71
39275;BME280;24980;48.874;2.332;2023-02-13T11:29:32;102951.58;;;25.54;37.70
39275;BME280;24980;48.874;2.332;2023-02-13T11:32:24;102944.25;;;25.53;37.71
39275;BME280;24980;48.874;2.332;2023-02-13T11:34:31;102945.28;;;25.52;37.70
39275;BME280;24980;48.874;2.332;2023-02-13T11:37:26;102941.11;;;25.51;37.68
39275;BME280;24980;48.874;2.332;2023-02-13T11:39:32;102937.30;;;25.49;37.64
39275;BME280;24980;48.874;2.332;2023-02-13T11:44:32;102930.70;;;25.45;37.63
39275;BME280;24980;48.874;2.332;2023-02-13T11:47:02;102927.80;;;25.42;37.64
39275;BME280;24980;48.874;2.332;2023-02-13T11:49:35;102923.28;;;25.41;37.65
39275;BME280;24980;48.874;2.332;2023-02-13T11:54:40;102921.75;;;25.39;37.66
39275;BME280;24980;48.874;2.332;2023-02-13T11:57:22;102918.17;;;25.38;37.65
39275;BME280;24980;48.874;2.332;2023-02-13T11:59:40;102924.72;;;25.38;37.66
39275;BME280;24980;48.874;2.332;2023-02-13T12:02:20;102922.18;;;25.39;37.66
39275;BME280;24980;48.874;2.332;2023-02-13T12:04:36;102921.56;;;25.40;37.64
39275;BME280;24980;48.874;2.332;2023-02-13T12:07:12;102919.11;;;25.40;37.62
39275;BME280;24980;48.874;2.332;2023-02-13T12:09:38;102914.20;;;25.41;37.61
39275;BME280;24980;48.874;2.332;2023-02-13T12:12:17;102912.76;;;25.41;37.59
39275;BME280;24980;48.874;2.332;2023-02-13T12:14:39;102907.43;;;25.42;37.58
39275;BME280;24980;48.874;2.332;2023-02-13T12:17:12;102908.88;;;25.43;37.57
39275;BME280;24980;48.874;2.332;2023-02-13T12:19:46;102909.78;;;25.43;37.57
39275;BME280;24980;48.874;2.332;2023-02-13T12:22:34;102908.59;;;25.43;37.56
39275;BME280;24980;48.874;2.332;2023-02-13T12:32:20;102901.41;;;25.45;37.63
39275;BME280;24980;48.874;2.332;2023-02-13T12:45:20;102892.08;;;25.48;37.81
39275;BME280;24980;48.874;2.332;2023-02-13T12:47:22;102890.38;;;25.48;37.83
39275;BME280;24980;48.874;2.332;2023-02-13T12:50:05;102888.45;;;25.50;37.86
39275;BME280;24980;48.874;2.332;2023-02-13T13:04:53;102876.06;;;25.51;37.81
39275;BME280;24980;48.874;2.332;2023-02-13T13:07:41;102879.05;;;25.52;37.78
39275;BME280;24980;48.874;2.332;2023-02-13T13:12:43;102873.19;;;25.54;37.72
39275;BME280;24980;48.874;2.332;2023-02-13T13:15:24;102868.27;;;25.54;37.71
39275;BME280;24980;48.874;2.332;2023-02-13T13:22:32;102854.59;;;25.56;37.68
39275;BME280;24980;48.874;2.332;2023-02-13T13:27:29;102855.47;;;25.58;37.65
39275;BME280;24980;48.874;2.332;2023-02-13T13:29:56;102854.45;;;25.58;37.62
39275;BME280;24980;48.874;2.332;2023-02-13T13:32:25;102849.52;;;25.57;37.62
39275;BME280;24980;48.874;2.332;2023-02-13T13:34:57;102852.92;;;25.58;37.59
39275;BME280;24980;48.874;2.332;2023-02-13T13:37:34;102850.30;;;25.58;37.58
39275;BME280;24980;48.874;2.332;2023-02-13T13:42:42;102849.27;;;25.60;37.53
39275;BME280;24980;48.874;2.332;2023-02-13T13:45:15;102843.59;;;25.59;37.50
39275;BME280;24980;48.874;2.332;2023-02-13T13:50:11;102837.02;;;25.56;37.46
39275;BME280;24980;48.874;2.332;2023-02-13T13:52:32;102837.70;;;25.55;37.44
39275;BME280;24980;48.874;2.332;2023-02-13T13:55:00;102836.27;;;25.52;37.44
39275;BME280;24980;48.874;2.332;2023-02-13T14:05:24;102834.23;;;25.41;37.36
39275;BME280;24980;48.874;2.332;2023-02-13T14:07:35;102828.55;;;25.39;37.36
39275;BME280;24980;48.874;2.332;2023-02-13T14:10:01;102828.34;;;25.37;37.36
39275;BME280;24980;48.874;2.332;2023-02-13T14:12:36;102832.10;;;25.36;37.34
39275;BME280;24980;48.874;2.332;2023-02-13T14:15:02;102837.35;;;25.35;37.31
39275;BME280;24980;48.874;2.332;2023-02-13T14:17:50;102835.63;;;25.34;37.30
39275;BME280;24980;48.874;2.332;2023-02-13T14:22:38;102830.28;;;25.31;37.28
39275;BME280;24980;48.874;2.332;2023-02-13T14:25:18;102830.63;;;25.30;37.27
39275;BME280;24980;48.874;2.332;2023-02-13T14:27:37;102829.27;;;25.29;37.29
39275;BME280;24980;48.874;2.332;2023-02-13T14:32:37;102825.18;;;25.26;37.26
39275;BME280;24980;48.874;2.332;2023-02-13T14:35:22;102826.61;;;25.25;37.23
39275;BME280;24980;48.874;2.332;2023-02-13T14:37:50;102824.08;;;25.24;37.19
39275;BME280;24980;48.874;2.332;2023-02-13T14:40:25;102825.16;;;25.22;37.14
39275;BME280;24980;48.874;2.332;2023-02-13T14:42:41;102821.17;;;25.22;37.10
39275;BME280;24980;48.874;2.332;2023-02-13T14:45:26;102824.20;;;25.21;37.05
39275;BME280;24980;48.874;2.332;2023-02-13T14:47:46;102824.56;;;25.20;37.02
39275;BME280;24980;48.874;2.332;2023-02-13T14:50:20;102822.84;;;25.18;36.98
39275;BME280;24980;48.874;2.332;2023-02-13T14:52:42;102816.55;;;25.17;36.94
39275;BME280;24980;48.874;2.332;2023-02-13T14:55:32;102815.12;;;25.16;36.90
39275;BME280;24980;48.874;2.332;2023-02-13T14:57:51;102818.25;;;25.15;36.86